Time;durP1;ratioP1;P1;durP2;ratioP2;P2;SDS_P1;SDS_P2;PMS_P1;PMS_P2;Temp;Humidity;BMP_temperature;BMP_pressure;BME280_temperature;BME280_humidity;BME280_pressure;Samples;Min_cycle;Max_cycle;Signal;HPM_P1;HPM_P2
2022/05/17 00:00:11;;;;;;;12.40;10.18;;;;;;;14.25;100.00;97230.88;4989366;28;20058;-57
2022/05/17 00:02:38;;;;;;;14.07;10.10;;;;;;;14.26;100.00;97226.91;5006709;28;20077;-56
2022/05/17 00:05:06;;;;;;;13.68;9.98;;;;;;;13.97;99.68;97169.41;4989608;28;20057;-55
2022/05/17 00:07:32;;;;;;;12.68;10.00;;;;;;;14.04;99.11;97180.59;5005661;28;20065;-56
2022/05/17 00:09:59;;;;;;;13.25;9.38;;;;;;;14.31;98.91;97220.97;4989205;28;20599;-56
2022/05/17 00:12:26;;;;;;;12.73;9.63;;;;;;;14.29;97.63;97223.38;5006274;28;20133;-56
2022/05/17 00:14:53;;;;;;;13.55;9.57;;;;;;;14.26;96.81;97224.13;4989054;28;20123;-58
2022/05/17 00:17:20;;;;;;;13.15;9.93;;;;;;;14.11;99.23;97214.06;5005935;28;20064;-56
2022/05/17 00:19:47;;;;;;;16.55;10.40;;;;;;;14.10;100.00;97212.47;5006343;28;20060;-57
2022/05/17 00:22:14;;;;;;;12.80;9.48;;;;;;;14.10;99.94;97212.47;5006728;28;20618;-56
2022/05/17 00:24:41;;;;;;;12.38;9.80;;;;;;;13.96;100.00;97206.81;5006875;28;20073;-56
2022/05/17 00:27:08;;;;;;;14.35;10.32;;;;;;;14.06;100.00;97206.88;5006381;28;20057;-56
2022/05/17 00:29:35;;;;;;;12.93;9.63;;;;;;;13.95;100.00;97189.31;5006025;28;20257;-57
2022/05/17 00:32:03;;;;;;;15.35;10.25;;;;;;;13.59;100.00;97121.44;4988649;28;20141;-57
2022/05/17 00:34:31;;;;;;;14.73;10.35;;;;;;;13.68;100.00;97152.53;4988650;28;20054;-56
2022/05/17 00:36:57;;;;;;;17.90;10.60;;;;;;;14.01;100.00;97198.06;5005557;28;20057;-56
2022/05/17 00:39:24;;;;;;;13.13;9.93;;;;;;;13.93;99.17;97202.00;5006153;28;20052;-58
2022/05/17 00:41:51;;;;;;;10.88;9.25;;;;;;;13.88;100.00;97188.47;5005777;28;20049;-56
2022/05/17 00:47:20;;;;;;;14.68;10.50;;;;;;;13.83;100.00;97197.19;5005795;28;20060;-56
2022/05/17 00:50:01;;;;;;;14.77;11.02;;;;;;;13.73;100.00;97186.75;4988346;28;20623;-55
2022/05/17 00:52:51;;;;;;;14.20;10.55;;;;;;;13.58;100.00;97192.22;4987857;28;20053;-56
2022/05/17 00:55:23;;;;;;;14.02;9.90;;;;;;;10.84;100.00;96744.47;4988164;28;20444;-56
2022/05/17 00:57:56;;;;;;;16.55;9.93;;;;;;;13.56;100.00;97188.25;5005548;28;20058;-57
2022/05/17 01:00:24;;;;;;;;;;;;;;;13.38;100.00;97188.09;5006389;28;20062;-55
2022/05/17 01:02:56;;;;;;;13.73;10.45;;;;;;;13.24;100.00;97210.25;5005840;28;20380;-58
2022/05/17 01:05:25;;;;;;;15.73;11.50;;;;;;;13.27;100.00;97181.66;4988411;28;20060;-56
2022/05/17 01:07:57;;;;;;;14.68;10.27;;;;;;;12.69;100.00;97121.47;5005220;28;20054;-56
2022/05/17 01:10:28;;;;;;;16.10;11.68;;;;;;;13.32;100.00;97189.66;5005614;28;20052;-57
2022/05/17 01:15:44;;;;;;;17.45;10.85;;;;;;;13.49;100.00;97177.84;5005800;28;20053;-58
2022/05/17 01:18:10;;;;;;;14.95;10.55;;;;;;;12.99;100.00;97106.25;5005256;28;20060;-56
2022/05/17 01:20:38;;;;;;;13.77;9.75;;;;;;;13.09;100.00;97118.69;4988343;28;20060;-59
2022/05/17 01:23:05;;;;;;;13.32;10.60;;;;;;;13.45;100.00;97171.44;5005474;28;20061;-56
2022/05/17 01:25:33;;;;;;;15.70;11.60;;;;;;;13.39;100.00;97161.84;5004980;28;20511;-57
2022/05/17 01:28:21;;;;;;;13.55;10.52;;;;;;;13.28;100.00;97163.75;4986538;28;20065;-56
2022/05/17 01:30:48;;;;;;;15.05;11.30;;;;;;;13.31;100.00;97160.19;4963114;28;20065;-59
2022/05/17 01:33:17;;;;;;;15.57;10.90;;;;;;;13.37;100.00;97153.09;4987148;28;20046;-56
2022/05/17 01:35:44;;;;;;;13.85;10.18;;;;;;;13.42;100.00;97160.31;5005121;28;20077;-58
2022/05/17 01:38:12;;;;;;;15.55;10.07;;;;;;;13.26;100.00;97163.34;5005258;28;20072;-58
2022/05/17 01:40:39;;;;;;;14.48;10.30;;;;;;;13.23;100.00;97169.66;5003869;28;20049;-59
2022/05/17 01:43:07;;;;;;;14.90;10.80;;;;;;;12.94;100.00;97123.31;4986954;28;20103;-56
2022/05/17 01:45:34;;;;;;;15.32;11.68;;;;;;;13.14;100.00;97160.84;5004974;28;20093;-59
2022/05/17 01:48:00;;;;;;;14.70;9.65;;;;;;;12.45;100.00;97095.03;4987072;28;20057;-56
2022/05/17 01:50:27;;;;;;;17.20;11.88;;;;;;;12.80;100.00;97156.53;5004670;28;20057;-56
2022/05/17 01:52:54;;;;;;;14.35;11.60;;;;;;;11.94;100.00;97013.53;4987118;28;20467;-56
2022/05/17 01:55:20;;;;;;;16.08;11.57;;;;;;;12.86;100.00;97143.06;4987191;28;20050;-56
2022/05/17 01:57:48;;;;;;;15.27;11.60;;;;;;;12.30;100.00;97059.94;5004813;28;20054;-56
2022/05/17 02:00:16;;;;;;;17.98;11.77;;;;;;;12.84;100.00;97151.81;5004665;28;20068;-57
2022/05/17 02:02:43;;;;;;;17.38;11.77;;;;;;;12.06;100.00;97149.34;5004686;28;20073;-55
2022/05/17 02:05:15;;;;;;;19.20;12.35;;;;;;;12.29;100.00;97141.69;4997509;28;20069;-55
2022/05/17 02:07:42;;;;;;;17.60;12.93;;;;;;;12.39;100.00;97146.56;4984717;28;20050;-56
2022/05/17 02:10:09;;;;;;;16.95;11.93;;;;;;;12.55;100.00;97147.13;4967456;28;20069;-57
2022/05/17 02:12:36;;;;;;;16.88;11.98;;;;;;;12.33;100.00;97109.16;4984833;28;20108;-59
2022/05/17 02:15:05;;;;;;;19.65;13.35;;;;;;;12.49;100.00;97143.09;4985155;28;20046;-56
2022/05/17 02:17:35;;;;;;;21.65;13.13;;;;;;;12.26;100.00;97083.31;4989402;28;20649;-56
2022/05/17 02:20:04;;;;;;;18.00;12.20;;;;;;;10.23;100.00;96742.13;4986803;28;20061;-55
2022/05/17 02:22:31;;;;;;;20.77;13.05;;;;;;;12.59;100.00;97131.31;5004851;28;20054;-58
2022/05/17 02:24:58;;;;;;;16.98;12.60;;;;;;;12.61;100.00;97142.84;4986806;28;20076;-56
2022/05/17 02:27:25;;;;;;;18.90;13.65;;;;;;;12.80;100.00;97134.31;5004083;28;20053;-58
2022/05/17 02:29:51;;;;;;;17.45;12.70;;;;;;;12.41;100.00;97108.06;5003925;28;20538;-56
2022/05/17 02:32:18;;;;;;;16.85;12.82;;;;;;;12.65;100.00;97110.31;5003678;28;20046;-56
2022/05/17 02:34:45;;;;;;;17.27;11.35;;;;;;;12.50;100.00;97119.69;5004183;28;20068;-58
2022/05/17 02:37:11;;;;;;;16.55;11.95;;;;;;;12.77;100.00;97135.03;5003605;28;20054;-56
2022/05/17 02:39:38;;;;;;;16.83;12.23;;;;;;;12.48;100.00;97091.50;4985693;28;20054;-59
2022/05/17 02:42:05;;;;;;;15.18;11.00;;;;;;;12.55;100.00;97099.09;4986474;28;20077;-56
2022/05/17 02:44:31;;;;;;;15.55;11.27;;;;;;;12.46;100.00;97107.72;4985667;28;20054;-56
2022/05/17 02:46:58;;;;;;;16.33;11.43;;;;;;;12.73;100.00;97138.97;5004010;28;20061;-58
2022/05/17 02:49:25;;;;;;;13.18;11.05;;;;;;;12.48;100.00;97099.81;4986150;28;20081;-56
2022/05/17 02:51:51;;;;;;;17.98;12.35;;;;;;;12.72;100.00;97138.19;5003992;28;20050;-59
2022/05/17 02:54:18;;;;;;;16.80;12.85;;;;;;;12.65;100.00;97140.88;4968995;28;20050;-56
2022/05/17 02:56:45;;;;;;;19.33;12.27;;;;;;;12.17;100.00;97053.06;4986359;28;20046;-57
2022/05/17 02:59:16;;;;;;;18.33;12.27;;;;;;;12.57;100.00;97128.09;5003881;28;20444;-55
2022/05/17 03:01:43;;;;;;;15.93;12.10;;;;;;;12.63;100.00;97154.34;4969644;28;20084;-56
2022/05/17 03:04:12;;;;;;;17.95;11.18;;;;;;;12.23;100.00;97076.53;5005982;28;20073;-56
2022/05/17 03:06:44;;;;;;;13.55;10.55;;;;;;;12.56;100.00;97157.06;5002257;28;20539;-57
2022/05/17 03:09:11;;;;;;;15.50;10.88;;;;;;;12.60;100.00;97152.34;5004108;28;20072;-57
2022/05/17 03:11:42;;;;;;;13.90;10.80;;;;;;;12.52;100.00;97145.09;5002525;28;20072;-56
2022/05/17 03:14:14;;;;;;;16.92;11.38;;;;;;;12.33;100.00;97120.28;5003757;28;20053;-56
2022/05/17 03:16:41;;;;;;;14.47;11.27;;;;;;;12.66;100.00;97147.25;5018570;28;20431;-56
2022/05/17 03:19:08;;;;;;;18.13;12.73;;;;;;;12.60;100.00;97157.91;5003329;28;20054;-56
2022/05/17 03:21:35;;;;;;;20.20;14.52;;;;;;;12.63;100.00;97146.03;5018387;28;20408;-57
2022/05/17 03:24:03;;;;;;;19.77;13.68;;;;;;;12.69;100.00;97150.06;5018420;28;20105;-55
2022/05/17 03:26:49;;;;;;;14.98;11.73;;;;;;;12.15;100.00;97052.66;5002616;28;20129;-56
2022/05/17 03:29:15;;;;;;;13.88;10.57;;;;;;;12.45;100.00;97117.25;5003086;28;20060;-58
2022/05/17 03:31:42;;;;;;;19.48;11.38;;;;;;;12.78;100.00;97158.91;5003395;28;20058;-56
2022/05/17 03:34:09;;;;;;;18.73;12.10;;;;;;;12.58;100.00;97124.16;5002152;28;20073;-57
2022/05/17 03:36:36;;;;;;;14.05;11.38;;;;;;;12.90;100.00;97164.16;5003447;28;20061;-57
2022/05/17 03:39:03;;;;;;;13.50;10.32;;;;;;;12.26;100.00;97048.00;5003639;28;20492;-56
2022/05/17 03:41:29;;;;;;;15.65;10.40;;;;;;;13.07;100.00;97160.00;5003302;28;20500;-57
2022/05/17 03:43:56;;;;;;;14.82;10.93;;;;;;;13.09;100.00;97164.00;5003601;28;20070;-56
2022/05/17 03:46:22;;;;;;;16.20;12.32;;;;;;;13.25;100.00;97172.88;5018729;28;20054;-56
2022/05/17 03:48:49;;;;;;;17.67;12.15;;;;;;;13.37;100.00;97164.22;5003638;28;20090;-56
2022/05/17 03:51:18;;;;;;;22.30;11.50;;;;;;;13.53;100.00;97173.09;5004282;28;20084;-56
2022/05/17 03:53:46;;;;;;;14.27;10.60;;;;;;;13.68;98.71;97163.69;5007098;28;20065;-58
2022/05/17 03:56:13;;;;;;;14.68;10.93;;;;;;;13.76;98.01;97166.50;5006966;28;20141;-56
2022/05/17 03:58:40;;;;;;;17.85;10.32;;;;;;;13.87;98.12;97161.78;5007051;28;20050;-56
2022/05/17 04:01:06;;;;;;;16.42;11.05;;;;;;;13.88;98.36;97132.78;5006436;28;20061;-57
2022/05/17 04:03:33;;;;;;;13.32;10.43;;;;;;;13.41;96.83;97037.06;5007294;28;20053;-59
2022/05/17 04:06:00;;;;;;;17.45;10.77;;;;;;;14.32;95.34;97152.91;5007014;28;20061;-57
2022/05/17 04:08:27;;;;;;;15.18;11.25;;;;;;;14.38;94.54;97156.91;4989355;28;20053;-57
2022/05/17 04:10:54;;;;;;;12.88;10.65;;;;;;;14.43;94.10;97153.75;5006757;28;20046;-57
2022/05/17 04:13:20;;;;;;;16.30;11.25;;;;;;;14.27;93.28;97112.28;5006708;28;20054;-56
2022/05/17 04:15:47;;;;;;;14.02;10.82;;;;;;;14.36;91.48;97097.97;4989331;28;20050;-56
2022/05/17 04:18:14;;;;;;;14.77;10.48;;;;;;;14.66;92.25;97162.59;5006568;28;20536;-56
2022/05/17 04:20:40;;;;;;;13.05;10.27;;;;;;;14.80;91.49;97134.72;5006974;28;20145;-56
2022/05/17 04:23:07;;;;;;;17.58;10.65;;;;;;;14.99;90.20;97151.91;4989095;28;20069;-59
2022/05/17 04:25:34;;;;;;;15.77;11.40;;;;;;;15.05;90.00;97155.09;5005047;28;20076;-58
2022/05/17 04:28:01;;;;;;;13.52;10.60;;;;;;;15.02;88.39;97119.63;5006012;28;20061;-59
2022/05/17 04:30:28;;;;;;;17.13;11.10;;;;;;;15.26;88.95;97152.31;4988485;28;20132;-56
2022/05/17 04:32:55;;;;;;;14.18;10.60;;;;;;;14.86;88.55;97100.47;4988348;28;20081;-56
2022/05/17 04:35:22;;;;;;;15.90;9.95;;;;;;;15.52;87.87;97154.75;4988133;28;20084;-56
2022/05/17 04:37:50;;;;;;;15.43;9.75;;;;;;;15.00;88.78;97105.28;5005868;28;20053;-57
2022/05/17 04:40:18;;;;;;;15.57;10.30;;;;;;;15.47;89.37;97138.41;5006026;28;20534;-56
2022/05/17 04:42:46;;;;;;;14.98;10.52;;;;;;;15.44;88.00;97114.09;4988261;28;20049;-59
2022/05/17 04:45:14;;;;;;;21.98;11.23;;;;;;;15.89;87.29;97141.13;5005849;28;20488;-56
2022/05/17 04:47:43;;;;;;;14.85;10.32;;;;;;;16.06;86.70;97140.28;5001585;28;20057;-57
2022/05/17 04:50:12;;;;;;;17.55;10.30;;;;;;;16.25;86.36;97148.22;5024383;28;20504;-58
2022/05/17 04:52:39;;;;;;;12.23;9.15;;;;;;;16.39;84.82;97142.56;5025464;28;20060;-55
2022/05/17 04:55:07;;;;;;;14.13;9.27;;;;;;;16.53;84.65;97136.94;5025323;28;20045;-56
2022/05/17 04:57:35;;;;;;;15.15;9.52;;;;;;;16.59;84.91;97138.13;5025784;28;20064;-56
2022/05/17 05:00:17;;;;;;;10.60;8.52;;;;;;;16.80;83.99;97144.81;5007089;28;20524;-59
2022/05/17 05:02:44;;;;;;;15.10;9.18;;;;;;;16.91;82.67;97134.34;5025023;28;20061;-57
2022/05/17 05:05:11;;;;;;;10.95;9.10;;;;;;;16.97;82.17;97110.31;5006728;28;20049;-56
2022/05/17 05:07:37;;;;;;;13.32;8.93;;;;;;;17.25;81.40;97138.09;5005150;28;20527;-56
2022/05/17 05:10:05;;;;;;;11.63;7.95;;;;;;;17.03;81.18;97097.47;5012479;28;20076;-57
2022/05/17 05:12:33;;;;;;;13.75;9.30;;;;;;;17.25;81.49;97115.69;5007054;28;20140;-55
2022/05/17 05:15:00;;;;;;;15.70;8.68;;;;;;;17.26;80.52;97072.50;5025078;28;20088;-56
2022/05/17 05:17:34;;;;;;;8.32;7.38;;;;;;;17.91;78.72;97145.13;5025288;28;20069;-56
2022/05/17 05:20:02;;;;;;;11.23;7.53;;;;;;;17.65;79.54;97100.97;5026200;28;20060;-56
2022/05/17 05:22:31;;;;;;;10.65;7.15;;;;;;;18.18;78.36;97123.63;5024916;28;20065;-57
2022/05/17 05:24:57;;;;;;;12.85;8.00;;;;;;;18.32;77.46;97128.28;5007547;28;20050;-58
2022/05/17 05:27:24;;;;;;;13.38;7.70;;;;;;;18.38;77.30;97138.66;5025295;28;20053;-56
2022/05/17 05:29:51;;;;;;;9.25;8.13;;;;;;;18.30;76.29;97081.03;5025020;28;20056;-59
2022/05/17 05:32:17;;;;;;;10.20;7.55;;;;;;;18.79;76.94;97136.53;5025106;28;20065;-56
2022/05/17 05:34:44;;;;;;;9.25;7.95;;;;;;;18.74;75.69;97125.75;5024967;28;20056;-57
2022/05/17 05:37:11;;;;;;;12.82;8.30;;;;;;;18.83;75.91;97128.84;5024854;28;20053;-56
2022/05/17 05:39:37;;;;;;;13.45;7.30;;;;;;;18.74;75.52;97108.91;5024696;28;20049;-56
2022/05/17 05:42:05;;;;;;;10.75;7.88;;;;;;;19.25;74.89;97136.63;5024890;28;20057;-57
2022/05/17 05:44:35;;;;;;;12.98;8.45;;;;;;;19.26;72.33;97137.41;5024448;28;20057;-56
2022/05/17 05:47:04;;;;;;;7.70;6.93;;;;;;;19.38;71.05;97115.19;5024367;28;20144;-56
2022/05/17 05:49:31;;;;;;;10.90;7.68;;;;;;;19.71;71.01;97132.31;5022171;28;20049;-57
2022/05/17 05:51:58;;;;;;;10.80;7.57;;;;;;;19.78;70.81;97134.97;5022409;28;20077;-56
2022/05/17 05:54:24;;;;;;;11.70;8.18;;;;;;;19.79;70.87;97159.06;5022827;28;20079;-62
2022/05/17 05:56:51;;;;;;;10.15;7.88;;;;;;;20.04;69.93;97114.44;5006449;28;20053;-68
2022/05/17 05:59:18;;;;;;;9.80;6.88;;;;;;;20.36;69.06;97125.91;5023213;28;20060;-57
2022/05/17 06:01:44;;;;;;;11.60;7.30;;;;;;;20.48;68.65;97125.22;5022457;28;20153;-63
2022/05/17 06:04:11;;;;;;;13.00;7.60;;;;;;;20.60;68.23;97107.69;5022385;28;20115;-63
2022/05/17 06:06:40;;;;;;;11.38;7.82;;;;;;;20.90;66.32;97127.94;5015966;28;20060;-56
2022/05/17 06:09:07;;;;;;;12.13;8.02;;;;;;;20.99;66.55;97118.94;5010827;28;20128;-56
2022/05/17 06:11:33;;;;;;;10.65;6.88;;;;;;;21.13;62.80;97123.44;5003837;28;20057;-57
2022/05/17 06:14:00;;;;;;;11.35;7.82;;;;;;;21.13;63.64;97127.06;4992143;28;20057;-56
2022/05/17 06:16:27;;;;;;;8.57;6.75;;;;;;;21.27;62.00;97123.91;5004504;28;20050;-62
2022/05/17 06:18:54;;;;;;;6.80;6.10;;;;;;;21.43;59.10;97132.38;4986348;28;20749;-57
2022/05/17 06:21:21;;;;;;;8.25;6.72;;;;;;;21.51;59.05;97122.53;5021610;28;20064;-61
2022/05/17 06:23:48;;;;;;;6.97;5.50;;;;;;;21.52;59.27;97126.09;5023341;28;20045;-56
2022/05/17 06:26:14;;;;;;;6.55;5.72;;;;;;;21.51;57.20;97088.69;5022195;28;20046;-64
2022/05/17 06:28:41;;;;;;;8.15;5.38;;;;;;;21.48;57.33;97083.91;5012976;28;20657;-55
2022/05/17 06:31:08;;;;;;;6.72;5.32;;;;;;;21.89;57.78;97132.03;5022580;28;20053;-56
2022/05/17 06:33:35;;;;;;;6.57;5.60;;;;;;;21.50;58.14;97032.75;5021756;28;20051;-61
2022/05/17 06:36:02;;;;;;;6.57;5.70;;;;;;;21.66;59.42;97112.47;5021745;28;20060;-57
2022/05/17 06:38:29;;;;;;;10.27;6.47;;;;;;;21.82;60.60;97115.28;5020934;28;20057;-59
2022/05/17 06:40:55;;;;;;;8.18;6.57;;;;;;;22.16;60.76;97112.75;5022084;28;20504;-63
2022/05/17 06:43:22;;;;;;;8.23;5.95;;;;;;;22.43;59.41;97110.38;5007158;28;20049;-58
2022/05/17 06:45:49;;;;;;;8.57;7.35;;;;;;;21.16;59.82;96897.97;5003295;28;20056;-73
2022/05/17 06:48:16;;;;;;;10.20;6.65;;;;;;;;;;5021625;28;20053;-55
2022/05/17 06:50:42;;;;;;;9.23;5.88;;;;;;;22.34;60.63;97109.44;5023083;28;20053;-56
2022/05/17 06:53:10;;;;;;;12.90;6.55;;;;;;;22.56;60.43;97109.69;5022554;28;20061;-61
2022/05/17 06:55:38;;;;;;;9.38;6.70;;;;;;;22.69;59.94;97110.47;5022291;28;20144;-56
2022/05/17 06:58:05;;;;;;;6.75;5.93;;;;;;;22.92;59.16;97107.38;5021659;28;20527;-61
2022/05/17 07:00:32;;;;;;;6.32;5.68;;;;;;;23.32;59.13;97102.91;5004860;28;20054;-57
2022/05/17 07:02:59;;;;;;;11.30;6.50;;;;;;;23.49;57.45;97104.38;5002403;28;20581;-55
2022/05/17 07:05:27;;;;;;;7.50;6.40;;;;;;;23.64;57.82;97102.66;5015623;28;20092;-64
2022/05/17 07:07:54;;;;;;;7.28;6.07;;;;;;;23.85;58.02;97096.28;5007309;28;20060;-73
2022/05/17 07:13:08;;;;;;;12.70;7.30;;;;;;;23.71;56.73;97057.16;5018278;28;20069;-56
2022/05/17 07:15:41;;;;;;;17.52;8.15;;;;;;;24.06;56.50;97089.88;5017177;28;20057;-56
2022/05/17 07:18:11;;;;;;;19.50;8.45;;;;;;;23.65;57.13;97070.28;5019632;28;20087;-57
2022/05/17 07:20:38;;;;;;;8.32;6.35;;;;;;;23.92;57.27;97073.38;5016051;28;20057;-58
2022/05/17 07:23:05;;;;;;;7.63;5.78;;;;;;;24.27;54.40;97089.13;5023457;28;20732;-55
2022/05/17 07:25:33;;;;;;;9.63;5.32;;;;;;;24.12;54.32;97076.75;5019840;28;20041;-56
2022/05/17 07:28:00;;;;;;;7.60;6.05;;;;;;;23.74;54.01;96994.00;5016368;28;20127;-65
2022/05/17 07:30:28;;;;;;;6.15;5.55;;;;;;;24.57;53.60;97074.25;5022547;28;20053;-66
2022/05/17 07:32:54;;;;;;;9.23;5.55;;;;;;;24.67;52.13;97078.78;5006121;28;20448;-57
2022/05/17 07:35:21;;;;;;;6.28;5.68;;;;;;;24.74;51.33;97084.16;5022235;28;20060;-55
2022/05/17 07:37:49;;;;;;;7.57;5.68;;;;;;;24.94;51.76;97076.06;5025698;28;20411;-57
2022/05/17 07:40:16;;;;;;;5.57;5.00;;;;;;;25.02;50.57;97060.38;5010992;28;20053;-60
2022/05/17 07:42:43;;;;;;;5.68;5.00;;;;;;;25.12;49.97;97075.38;5025856;28;20435;-62
2022/05/17 07:45:12;;;;;;;7.45;4.80;;;;;;;25.27;48.96;97071.53;5025762;28;20358;-63
2022/05/17 07:47:38;;;;;;;6.30;5.05;;;;;;;25.38;45.38;97071.13;5025585;28;20041;-55
2022/05/17 07:50:06;;;;;;;5.70;5.20;;;;;;;25.60;46.42;97071.81;5025288;28;20053;-57
2022/05/17 07:52:32;;;;;;;6.25;5.00;;;;;;;24.88;44.87;96956.06;5025701;28;20124;-56
2022/05/17 07:55:01;;;;;;;9.23;6.97;;;;;;;25.64;44.36;97071.69;5024407;28;20045;-63
2022/05/17 07:57:27;;;;;;;5.40;4.45;;;;;;;25.88;44.64;97070.59;5024023;28;20046;-59
2022/05/17 07:59:54;;;;;;;9.85;5.20;;;;;;;25.92;44.23;97071.25;5025448;28;20076;-60
2022/05/17 08:02:21;;;;;;;5.55;5.05;;;;;;;25.20;44.31;97020.75;5024872;28;20471;-55
2022/05/17 08:04:48;;;;;;;4.78;4.38;;;;;;;25.84;44.28;97063.50;5024278;28;20529;-57
2022/05/17 08:07:16;;;;;;;7.32;4.82;;;;;;;26.04;41.59;97064.66;5021174;28;20400;-57
2022/05/17 08:09:43;;;;;;;5.38;4.88;;;;;;;26.24;40.68;97061.38;5025059;28;20420;-58
2022/05/17 08:12:15;;;;;;;7.10;4.35;;;;;;;26.08;41.17;97016.25;5027191;28;20478;-54
2022/05/17 08:14:41;;;;;;;5.30;4.80;;;;;;;26.46;40.60;97059.16;5023455;28;20139;-57
2022/05/17 08:17:08;;;;;;;5.38;4.88;;;;;;;26.42;39.44;97041.47;5024711;28;20057;-62
2022/05/17 08:19:37;;;;;;;5.28;4.15;;;;;;;26.65;37.63;97046.53;5025112;28;20050;-56
2022/05/17 08:22:05;;;;;;;5.97;4.47;;;;;;;25.15;37.46;96796.56;5025494;28;20053;-60
2022/05/17 08:27:31;;;;;;;5.68;4.35;;;;;;;26.62;37.43;97019.00;5023710;28;20049;-60
2022/05/17 08:27:31;;;;;;;6.57;4.75;;;;;;;26.90;38.15;97037.63;5024958;28;20080;-59
2022/05/17 08:30:05;;;;;;;6.18;4.45;;;;;;;26.71;38.29;97036.84;5009852;28;20528;-58
2022/05/17 08:35:16;;;;;;;6.50;4.70;;;;;;;27.09;37.24;97033.44;5024772;28;20049;-59
2022/05/17 08:37:43;;;;;;;6.55;4.00;;;;;;;27.20;37.14;97033.72;5010003;28;20501;-55
2022/05/17 08:40:19;;;;;;;5.07;4.20;;;;;;;27.03;36.95;97006.91;5025165;28;20049;-60
2022/05/17 08:42:50;;;;;;;9.15;4.28;;;;;;;26.87;36.30;97003.66;5026203;28;20053;-55
2022/05/17 08:45:28;;;;;;;5.35;4.85;;;;;;;26.78;37.26;96950.44;5007340;28;20052;-58
2022/05/17 08:47:55;;;;;;;5.78;4.20;;;;;;;27.18;36.68;96996.41;5007694;28;20574;-57
2022/05/17 08:50:32;;;;;;;4.30;3.90;;;;;;;27.46;36.63;97034.06;5008184;28;20060;-57
2022/05/17 08:52:59;;;;;;;5.10;4.70;;;;;;;27.73;37.53;97026.16;5025555;28;20057;-55
2022/05/17 08:55:36;;;;;;;6.60;4.53;;;;;;;28.04;36.68;97018.06;5025557;28;20058;-60
2022/05/17 08:58:13;;;;;;;4.70;4.15;;;;;;;27.75;35.41;96988.66;5025341;28;20050;-55
2022/05/17 09:00:46;;;;;;;5.25;4.80;;;;;;;27.57;36.10;96989.56;5007436;28;20086;-56
2022/05/17 09:03:31;;;;;;;;;;;;;;;27.76;37.08;97025.19;5008030;28;20052;-55
2022/05/17 09:06:13;;;;;;;5.05;4.57;;;;;;;27.78;35.86;97016.97;5025967;28;19925;-60
2022/05/17 09:08:48;;;;;;;4.80;4.40;;;;;;;28.11;36.72;97017.69;5025447;28;20061;-58
2022/05/17 09:11:43;;;;;;;5.57;4.40;;;;;;;28.56;35.97;97018.59;5025585;28;20057;-61
2022/05/17 09:14:19;;;;;;;4.78;4.38;;;;;;;28.77;34.82;97017.41;5025001;28;20219;-54
2022/05/17 09:17:04;;;;;;;4.95;4.55;;;;;;;27.83;35.51;96967.91;5025073;28;20053;-55
2022/05/17 09:19:31;;;;;;;4.80;4.30;;;;;;;28.02;35.02;96948.63;5024856;28;20068;-57
2022/05/17 09:22:02;;;;;;;5.18;4.53;;;;;;;28.52;35.21;97018.78;5024818;28;20060;-55
2022/05/17 09:24:59;;;;;;;4.95;4.55;;;;;;;28.70;34.17;97012.09;5007454;28;20340;-61
2022/05/17 09:27:34;;;;;;;4.97;4.57;;;;;;;28.33;34.43;96939.63;5025029;28;20050;-62
2022/05/17 09:30:07;;;;;;;6.47;5.63;;;;;;;28.37;33.42;96948.75;5024906;28;20057;-59
2022/05/17 09:32:39;;;;;;;5.70;5.03;;;;;;;28.27;34.23;96981.44;5024438;28;20065;-56
2022/05/17 09:35:21;;;;;;;5.43;4.93;;;;;;;28.55;33.79;97005.63;5024317;28;20060;-61
2022/05/17 09:37:53;;;;;;;8.63;4.70;;;;;;;28.37;34.50;96965.84;5024906;28;20049;-60
2022/05/17 09:40:29;;;;;;;6.95;4.55;;;;;;;28.29;35.15;96976.06;5024036;28;20599;-56
2022/05/17 09:42:56;;;;;;;4.47;4.07;;;;;;;28.40;35.09;96999.06;5023977;28;20099;-59
2022/05/17 09:45:45;;;;;;;5.10;4.57;;;;;;;28.61;34.52;96986.53;5024216;28;20053;-54
2022/05/17 09:48:25;;;;;;;5.22;4.82;;;;;;;28.43;34.91;96981.00;5015002;28;20056;-56
2022/05/17 09:53:44;;;;;;;8.20;4.47;;;;;;;29.24;33.81;96971.53;5024656;28;20049;-60
2022/05/17 09:56:13;;;;;;;4.90;4.28;;;;;;;29.30;33.00;96975.25;5023918;28;20050;-59
2022/05/17 09:58:42;;;;;;;4.90;4.13;;;;;;;29.41;33.76;96969.72;5024265;28;20393;-55
2022/05/17 10:01:22;;;;;;;5.20;4.22;;;;;;;29.74;33.04;96981.63;5023910;28;20057;-60
2022/05/17 10:04:07;;;;;;;4.15;3.85;;;;;;;30.04;32.19;96965.09;5024339;28;20488;-58
2022/05/17 10:06:38;;;;;;;5.90;4.30;;;;;;;29.91;32.31;96961.84;5024106;28;20060;-60
2022/05/17 10:09:08;;;;;;;4.60;3.97;;;;;;;29.86;32.59;96963.34;5024286;28;20065;-56
2022/05/17 10:11:45;;;;;;;5.38;4.35;;;;;;;29.67;32.30;96959.19;5023866;28;20550;-61
2022/05/17 10:14:33;;;;;;;4.78;4.38;;;;;;;29.50;32.80;96963.88;5006647;28;20076;-55
2022/05/17 10:17:04;;;;;;;9.20;4.47;;;;;;;29.41;33.91;96958.28;5023707;28;20068;-55
2022/05/17 10:19:38;;;;;;;4.68;3.97;;;;;;;29.54;33.74;96967.31;5023752;28;20056;-57
2022/05/17 10:22:11;;;;;;;5.22;4.82;;;;;;;29.43;33.27;96967.16;5006419;28;20050;-60
2022/05/17 10:24:41;;;;;;;;;;;;;;;29.04;33.56;96962.88;5006671;28;20054;-61
2022/05/17 10:27:29;;;;;;;6.97;4.22;;;;;;;28.76;34.24;96964.50;5022001;28;19932;-61
2022/05/17 10:30:02;;;;;;;6.93;4.80;;;;;;;28.65;34.33;96947.19;5031873;28;20526;-56
2022/05/17 10:32:37;;;;;;;5.85;4.28;;;;;;;28.58;34.64;96950.47;5023870;28;20059;-63
2022/05/17 10:35:17;;;;;;;5.78;5.03;;;;;;;28.60;34.96;96945.03;5018759;28;20053;-59
2022/05/17 10:37:47;;;;;;;5.65;4.63;;;;;;;28.42;34.85;96905.31;5016231;28;20053;-61
2022/05/17 10:40:18;;;;;;;8.63;4.70;;;;;;;28.94;34.69;96947.97;5004471;28;20567;-56
2022/05/17 10:42:45;;;;;;;5.10;4.60;;;;;;;29.05;34.13;96911.06;5017511;28;20053;-55
2022/05/17 10:45:32;;;;;;;5.53;5.00;;;;;;;29.75;33.73;96943.19;5008560;28;20072;-55
2022/05/17 10:48:14;;;;;;;5.63;4.70;;;;;;;29.82;33.22;96948.50;5021991;28;20053;-63
2022/05/17 10:51:04;;;;;;;5.28;4.40;;;;;;;29.85;32.93;96941.78;5022222;28;20056;-59
2022/05/17 10:53:40;;;;;;;6.47;5.15;;;;;;;29.82;33.07;96934.22;5014125;28;20049;-59
2022/05/17 10:56:29;;;;;;;4.95;4.43;;;;;;;29.82;34.21;96922.78;5021676;28;20388;-60
2022/05/17 10:59:13;;;;;;;5.45;4.95;;;;;;;29.75;33.66;96919.59;5006617;28;20061;-53
2022/05/17 11:01:46;;;;;;;;;;;;;;;29.45;33.70;96918.88;5016199;28;20088;-57
2022/05/17 11:04:34;;;;;;;6.32;4.57;;;;;;;29.21;34.89;96918.31;5028853;28;19933;-64
2022/05/17 11:07:03;;;;;;;;;;;;;;;29.45;35.32;96907.47;5030308;28;20053;-63
2022/05/17 11:09:45;;;;;;;5.00;4.60;;;;;;;29.73;34.71;96911.53;5022510;28;19932;-57
2022/05/17 11:12:15;;;;;;;5.22;4.40;;;;;;;29.77;32.94;96866.38;5036906;28;20057;-66
2022/05/17 11:15:01;;;;;;;5.57;4.68;;;;;;;30.37;32.63;96897.69;5027975;28;20053;-61
2022/05/17 11:17:36;;;;;;;6.18;5.28;;;;;;;30.34;33.20;96852.97;5029019;28;20623;-58
2022/05/17 11:20:27;;;;;;;5.30;4.85;;;;;;;30.90;33.85;96900.75;4849087;28;20057;-59
2022/05/17 11:23:20;;;;;;;5.35;4.95;;;;;;;31.01;32.96;96887.84;5027079;28;20755;-57
2022/05/17 11:26:02;;;;;;;5.03;4.68;;;;;;;31.28;32.75;96885.16;4923478;28;20045;-62
2022/05/17 11:28:55;;;;;;;5.35;4.88;;;;;;;31.17;31.86;96875.72;5018729;28;20057;-61
2022/05/17 11:32:01;;;;;;;6.23;5.33;;;;;;;30.06;32.97;96871.09;5018633;28;20057;-57
2022/05/17 11:34:36;;;;;;;5.30;4.80;;;;;;;29.74;34.36;96873.09;5016309;28;20562;-58
2022/05/17 11:37:08;;;;;;;5.75;5.07;;;;;;;29.83;33.81;96812.94;5023427;28;20049;-63
2022/05/17 11:39:37;;;;;;;5.00;4.60;;;;;;;30.37;32.96;96869.09;5012073;28;20588;-61
2022/05/17 11:42:24;;;;;;;5.38;4.57;;;;;;;30.49;32.63;96865.03;5010414;28;20571;-62
2022/05/17 11:44:51;;;;;;;6.43;5.28;;;;;;;29.88;33.34;96860.00;5023768;28;20053;-58
2022/05/17 11:47:41;;;;;;;4.78;4.40;;;;;;;30.03;33.76;96855.75;5023353;28;20057;-56
2022/05/17 11:50:21;;;;;;;5.93;5.25;;;;;;;30.25;34.15;96850.28;5020982;28;20500;-56
2022/05/17 11:53:15;;;;;;;5.70;5.18;;;;;;;30.26;35.43;96851.84;5029825;28;20101;-62
2022/05/17 11:56:02;;;;;;;;;;;;;;;30.43;35.07;96849.91;5012079;28;20086;-61